sensor_id;sensor_type;location;lat;lon;timestamp;P1;durP1;ratioP1;P2;durP2;ratioP2
4422;SDS011;2224;49.814;8.650;2022-12-29T00:02:02;4.00;;;3.17;;
4422;SDS011;2224;49.814;8.650;2022-12-29T00:04:28;4.13;;;3.30;;
4422;SDS011;2224;49.814;8.650;2022-12-29T00:06:53;4.30;;;3.37;;
4422;SDS011;2224;49.814;8.650;2022-12-29T00:09:20;4.63;;;3.33;;
4422;SDS011;2224;49.814;8.650;2022-12-29T00:11:46;3.57;;;2.70;;
4422;SDS011;2224;49.814;8.650;2022-12-29T00:14:11;3.80;;;3.03;;
4422;SDS011;2224;49.814;8.650;2022-12-29T00:16:56;6.30;;;3.27;;
4422;SDS011;2224;49.814;8.650;2022-12-29T00:19:21;4.40;;;3.70;;
4422;SDS011;2224;49.814;8.650;2022-12-29T00:22:08;4.83;;;2.90;;
4422;SDS011;2224;49.814;8.650;2022-12-29T00:24:53;4.00;;;3.00;;
4422;SDS011;2224;49.814;8.650;2022-12-29T00:27:25;3.23;;;2.93;;
4422;SDS011;2224;49.814;8.650;2022-12-29T00:30:10;3.87;;;3.30;;
4422;SDS011;2224;49.814;8.650;2022-12-29T00:32:55;3.63;;;2.57;;
4422;SDS011;2224;49.814;8.650;2022-12-29T00:35:40;3.87;;;2.47;;
4422;SDS011;2224;49.814;8.650;2022-12-29T00:38:12;3.33;;;3.03;;
4422;SDS011;2224;49.814;8.650;2022-12-29T00:40:56;4.63;;;3.03;;
4422;SDS011;2224;49.814;8.650;2022-12-29T00:43:40;3.30;;;2.90;;
4422;SDS011;2224;49.814;8.650;2022-12-29T00:46:24;4.43;;;3.00;;
4422;SDS011;2224;49.814;8.650;2022-12-29T00:48:49;3.80;;;3.20;;
4422;SDS011;2224;49.814;8.650;2022-12-29T00:51:33;4.13;;;3.50;;
4422;SDS011;2224;49.814;8.650;2022-12-29T00:53:59;6.40;;;3.90;;
4422;SDS011;2224;49.814;8.650;2022-12-29T00:56:24;3.50;;;3.07;;
4422;SDS011;2224;49.814;8.650;2022-12-29T00:58:49;5.50;;;3.07;;
4422;SDS011;2224;49.814;8.650;2022-12-29T01:01:15;3.27;;;3.00;;
4422;SDS011;2224;49.814;8.650;2022-12-29T01:03:40;4.00;;;3.20;;
4422;SDS011;2224;49.814;8.650;2022-12-29T01:06:07;3.40;;;2.73;;
4422;SDS011;2224;49.814;8.650;2022-12-29T01:08:33;3.40;;;3.10;;
4422;SDS011;2224;49.814;8.650;2022-12-29T01:10:59;3.37;;;3.07;;
4422;SDS011;2224;49.814;8.650;2022-12-29T01:13:25;3.40;;;2.93;;
4422;SDS011;2224;49.814;8.650;2022-12-29T01:15:51;2.80;;;2.60;;
4422;SDS011;2224;49.814;8.650;2022-12-29T01:18:16;2.93;;;2.73;;
4422;SDS011;2224;49.814;8.650;2022-12-29T01:20:42;4.33;;;2.70;;
4422;SDS011;2224;49.814;8.650;2022-12-29T01:23:07;3.30;;;2.80;;
4422;SDS011;2224;49.814;8.650;2022-12-29T01:25:32;2.90;;;2.50;;
4422;SDS011;2224;49.814;8.650;2022-12-29T01:27:58;2.70;;;2.47;;
4422;SDS011;2224;49.814;8.650;2022-12-29T01:30:23;2.77;;;2.47;;
4422;SDS011;2224;49.814;8.650;2022-12-29T01:32:48;2.47;;;2.27;;
4422;SDS011;2224;49.814;8.650;2022-12-29T01:35:13;2.40;;;2.10;;
4422;SDS011;2224;49.814;8.650;2022-12-29T01:37:39;3.23;;;2.00;;
4422;SDS011;2224;49.814;8.650;2022-12-29T01:40:04;2.53;;;2.00;;
4422;SDS011;2224;49.814;8.650;2022-12-29T01:42:30;1.70;;;1.60;;
4422;SDS011;2224;49.814;8.650;2022-12-29T01:44:56;2.00;;;1.80;;
4422;SDS011;2224;49.814;8.650;2022-12-29T01:49:52;5.07;;;1.80;;
4422;SDS011;2224;49.814;8.650;2022-12-29T01:52:19;1.57;;;1.47;;
4422;SDS011;2224;49.814;8.650;2022-12-29T01:54:49;1.83;;;1.40;;
4422;SDS011;2224;49.814;8.650;2022-12-29T01:57:18;1.57;;;1.47;;
4422;SDS011;2224;49.814;8.650;2022-12-29T01:59:52;1.53;;;1.37;;
4422;SDS011;2224;49.814;8.650;2022-12-29T02:02:21;1.70;;;1.30;;
4422;SDS011;2224;49.814;8.650;2022-12-29T02:04:46;3.37;;;1.40;;
4422;SDS011;2224;49.814;8.650;2022-12-29T02:07:20;1.60;;;1.50;;
4422;SDS011;2224;49.814;8.650;2022-12-29T02:09:47;3.27;;;1.70;;
4422;SDS011;2224;49.814;8.650;2022-12-29T02:12:13;1.43;;;1.33;;
4422;SDS011;2224;49.814;8.650;2022-12-29T02:14:39;1.50;;;1.40;;
4422;SDS011;2224;49.814;8.650;2022-12-29T02:17:14;1.30;;;1.20;;
4422;SDS011;2224;49.814;8.650;2022-12-29T02:20:04;3.33;;;1.40;;
4422;SDS011;2224;49.814;8.650;2022-12-29T02:27:53;2.03;;;1.77;;
4422;SDS011;2224;49.814;8.650;2022-12-29T02:33:19;1.57;;;1.20;;
4422;SDS011;2224;49.814;8.650;2022-12-29T02:40:51;2.80;;;1.30;;
4422;SDS011;2224;49.814;8.650;2022-12-29T02:43:24;1.20;;;1.10;;
4422;SDS011;2224;49.814;8.650;2022-12-29T02:45:57;3.13;;;1.57;;
4422;SDS011;2224;49.814;8.650;2022-12-29T02:51:07;1.93;;;1.20;;
4422;SDS011;2224;49.814;8.650;2022-12-29T02:53:36;1.40;;;1.30;;
4422;SDS011;2224;49.814;8.650;2022-12-29T02:56:20;1.20;;;1.10;;
4422;SDS011;2224;49.814;8.650;2022-12-29T02:58:46;1.47;;;1.37;;
4422;SDS011;2224;49.814;8.650;2022-12-29T03:09:21;2.40;;;1.23;;
4422;SDS011;2224;49.814;8.650;2022-12-29T03:14:49;2.90;;;1.67;;
4422;SDS011;2224;49.814;8.650;2022-12-29T03:20:14;2.30;;;1.57;;
4422;SDS011;2224;49.814;8.650;2022-12-29T03:22:43;3.10;;;1.37;;
4422;SDS011;2224;49.814;8.650;2022-12-29T03:25:11;1.80;;;1.70;;
4422;SDS011;2224;49.814;8.650;2022-12-29T03:27:44;1.63;;;1.30;;
4422;SDS011;2224;49.814;8.650;2022-12-29T03:30:12;2.60;;;1.60;;
4422;SDS011;2224;49.814;8.650;2022-12-29T03:32:40;2.30;;;1.77;;
4422;SDS011;2224;49.814;8.650;2022-12-29T03:35:08;1.67;;;1.57;;
4422;SDS011;2224;49.814;8.650;2022-12-29T03:37:43;2.43;;;1.60;;
4422;SDS011;2224;49.814;8.650;2022-12-29T03:40:12;3.93;;;2.10;;
4422;SDS011;2224;49.814;8.650;2022-12-29T03:42:38;2.60;;;2.10;;
4422;SDS011;2224;49.814;8.650;2022-12-29T03:45:04;4.37;;;1.90;;
4422;SDS011;2224;49.814;8.650;2022-12-29T03:47:31;2.63;;;1.83;;
4422;SDS011;2224;49.814;8.650;2022-12-29T03:49:57;1.90;;;1.80;;
4422;SDS011;2224;49.814;8.650;2022-12-29T03:52:22;2.13;;;1.77;;
4422;SDS011;2224;49.814;8.650;2022-12-29T03:54:48;2.27;;;1.70;;
4422;SDS011;2224;49.814;8.650;2022-12-29T03:57:13;2.17;;;1.97;;
4422;SDS011;2224;49.814;8.650;2022-12-29T03:59:38;1.77;;;1.50;;
4422;SDS011;2224;49.814;8.650;2022-12-29T04:02:06;2.00;;;1.90;;
4422;SDS011;2224;49.814;8.650;2022-12-29T04:04:31;2.03;;;1.83;;
4422;SDS011;2224;49.814;8.650;2022-12-29T04:06:56;2.00;;;1.80;;
4422;SDS011;2224;49.814;8.650;2022-12-29T04:09:22;2.27;;;2.07;;
4422;SDS011;2224;49.814;8.650;2022-12-29T04:11:47;3.27;;;1.90;;
4422;SDS011;2224;49.814;8.650;2022-12-29T04:14:12;2.40;;;1.93;;
4422;SDS011;2224;49.814;8.650;2022-12-29T04:16:38;1.93;;;1.67;;
4422;SDS011;2224;49.814;8.650;2022-12-29T04:19:04;1.90;;;1.70;;
4422;SDS011;2224;49.814;8.650;2022-12-29T04:21:30;2.03;;;1.83;;
4422;SDS011;2224;49.814;8.650;2022-12-29T04:23:55;2.90;;;1.83;;
4422;SDS011;2224;49.814;8.650;2022-12-29T04:26:20;2.10;;;1.90;;
4422;SDS011;2224;49.814;8.650;2022-12-29T04:28:46;3.87;;;2.57;;
4422;SDS011;2224;49.814;8.650;2022-12-29T04:31:11;2.80;;;2.37;;
4422;SDS011;2224;49.814;8.650;2022-12-29T04:33:36;2.17;;;1.97;;
4422;SDS011;2224;49.814;8.650;2022-12-29T04:36:02;3.03;;;2.30;;
4422;SDS011;2224;49.814;8.650;2022-12-29T04:38:27;2.67;;;2.00;;
4422;SDS011;2224;49.814;8.650;2022-12-29T04:40:53;3.40;;;1.87;;
4422;SDS011;2224;49.814;8.650;2022-12-29T04:43:18;3.10;;;2.20;;
4422;SDS011;2224;49.814;8.650;2022-12-29T04:45:47;2.40;;;1.97;;
4422;SDS011;2224;49.814;8.650;2022-12-29T04:48:13;2.87;;;2.40;;
4422;SDS011;2224;49.814;8.650;2022-12-29T04:50:39;3.23;;;2.23;;
4422;SDS011;2224;49.814;8.650;2022-12-29T04:53:05;5.30;;;2.50;;
4422;SDS011;2224;49.814;8.650;2022-12-29T04:55:30;2.60;;;1.70;;
4422;SDS011;2224;49.814;8.650;2022-12-29T04:57:55;2.40;;;1.63;;
4422;SDS011;2224;49.814;8.650;2022-12-29T05:00:21;2.17;;;1.83;;
4422;SDS011;2224;49.814;8.650;2022-12-29T05:02:46;2.67;;;1.87;;
4422;SDS011;2224;49.814;8.650;2022-12-29T05:05:12;4.67;;;1.80;;
4422;SDS011;2224;49.814;8.650;2022-12-29T05:07:37;2.27;;;1.80;;
4422;SDS011;2224;49.814;8.650;2022-12-29T05:10:03;1.77;;;1.67;;
4422;SDS011;2224;49.814;8.650;2022-12-29T05:12:30;3.23;;;1.90;;
4422;SDS011;2224;49.814;8.650;2022-12-29T05:14:56;2.53;;;1.50;;
4422;SDS011;2224;49.814;8.650;2022-12-29T05:17:21;2.73;;;2.00;;
4422;SDS011;2224;49.814;8.650;2022-12-29T05:19:46;4.23;;;2.57;;
4422;SDS011;2224;49.814;8.650;2022-12-29T05:22:12;3.70;;;1.87;;
4422;SDS011;2224;49.814;8.650;2022-12-29T05:24:37;3.50;;;2.33;;
4422;SDS011;2224;49.814;8.650;2022-12-29T05:27:02;3.63;;;1.97;;
4422;SDS011;2224;49.814;8.650;2022-12-29T05:29:28;2.80;;;1.70;;
4422;SDS011;2224;49.814;8.650;2022-12-29T05:31:53;2.70;;;1.70;;
4422;SDS011;2224;49.814;8.650;2022-12-29T05:34:18;1.83;;;1.50;;
4422;SDS011;2224;49.814;8.650;2022-12-29T05:36:44;1.73;;;1.60;;
4422;SDS011;2224;49.814;8.650;2022-12-29T05:39:09;2.80;;;1.80;;
4422;SDS011;2224;49.814;8.650;2022-12-29T05:41:34;3.13;;;2.00;;
4422;SDS011;2224;49.814;8.650;2022-12-29T05:44:00;2.03;;;1.83;;
4422;SDS011;2224;49.814;8.650;2022-12-29T05:46:25;1.57;;;1.47;;
4422;SDS011;2224;49.814;8.650;2022-12-29T05:48:51;2.03;;;1.67;;
4422;SDS011;2224;49.814;8.650;2022-12-29T05:51:16;4.60;;;2.33;;
4422;SDS011;2224;49.814;8.650;2022-12-29T05:53:41;4.03;;;2.00;;
4422;SDS011;2224;49.814;8.650;2022-12-29T05:56:06;2.40;;;1.90;;
4422;SDS011;2224;49.814;8.650;2022-12-29T05:58:32;1.70;;;1.60;;
4422;SDS011;2224;49.814;8.650;2022-12-29T06:00:57;3.43;;;2.10;;
4422;SDS011;2224;49.814;8.650;2022-12-29T06:03:23;1.67;;;1.57;;
4422;SDS011;2224;49.814;8.650;2022-12-29T06:05:48;2.63;;;1.90;;
4422;SDS011;2224;49.814;8.650;2022-12-29T06:08:14;2.57;;;1.90;;
4422;SDS011;2224;49.814;8.650;2022-12-29T06:10:39;1.83;;;1.70;;
4422;SDS011;2224;49.814;8.650;2022-12-29T06:13:07;2.27;;;2.07;;
4422;SDS011;2224;49.814;8.650;2022-12-29T06:15:32;2.00;;;1.80;;
4422;SDS011;2224;49.814;8.650;2022-12-29T06:17:58;1.83;;;1.50;;
4422;SDS011;2224;49.814;8.650;2022-12-29T06:20:23;2.63;;;1.80;;
4422;SDS011;2224;49.814;8.650;2022-12-29T06:22:48;2.20;;;1.70;;
4422;SDS011;2224;49.814;8.650;2022-12-29T06:25:14;1.70;;;1.60;;
4422;SDS011;2224;49.814;8.650;2022-12-29T06:27:40;2.43;;;1.77;;
4422;SDS011;2224;49.814;8.650;2022-12-29T06:30:05;1.93;;;1.73;;
4422;SDS011;2224;49.814;8.650;2022-12-29T06:32:31;3.27;;;1.60;;
4422;SDS011;2224;49.814;8.650;2022-12-29T06:34:56;2.13;;;1.93;;
4422;SDS011;2224;49.814;8.650;2022-12-29T06:37:21;3.20;;;2.30;;
4422;SDS011;2224;49.814;8.650;2022-12-29T06:39:47;2.07;;;1.87;;
4422;SDS011;2224;49.814;8.650;2022-12-29T06:42:12;5.07;;;1.70;;
4422;SDS011;2224;49.814;8.650;2022-12-29T06:44:37;1.93;;;1.73;;
4422;SDS011;2224;49.814;8.650;2022-12-29T06:47:03;1.87;;;1.77;;
4422;SDS011;2224;49.814;8.650;2022-12-29T06:49:28;2.63;;;1.90;;
4422;SDS011;2224;49.814;8.650;2022-12-29T06:51:53;1.70;;;1.60;;
4422;SDS011;2224;49.814;8.650;2022-12-29T06:54:19;3.40;;;2.30;;
4422;SDS011;2224;49.814;8.650;2022-12-29T06:56:44;2.57;;;2.17;;
4422;SDS011;2224;49.814;8.650;2022-12-29T06:59:09;2.20;;;2.00;;
4422;SDS011;2224;49.814;8.650;2022-12-29T07:01:35;2.93;;;1.83;;
4422;SDS011;2224;49.814;8.650;2022-12-29T07:04:04;2.90;;;1.90;;
4422;SDS011;2224;49.814;8.650;2022-12-29T07:06:29;2.87;;;1.70;;
4422;SDS011;2224;49.814;8.650;2022-12-29T07:08:54;3.40;;;1.97;;
4422;SDS011;2224;49.814;8.650;2022-12-29T07:11:22;2.23;;;2.03;;
4422;SDS011;2224;49.814;8.650;2022-12-29T07:13:47;3.33;;;2.00;;
4422;SDS011;2224;49.814;8.650;2022-12-29T07:16:13;4.43;;;2.43;;
4422;SDS011;2224;49.814;8.650;2022-12-29T07:18:38;2.03;;;1.83;;
4422;SDS011;2224;49.814;8.650;2022-12-29T07:21:03;4.00;;;2.30;;
4422;SDS011;2224;49.814;8.650;2022-12-29T07:23:29;2.40;;;2.10;;
4422;SDS011;2224;49.814;8.650;2022-12-29T07:26:05;3.67;;;2.53;;
4422;SDS011;2224;49.814;8.650;2022-12-29T07:28:32;2.30;;;2.10;;
4422;SDS011;2224;49.814;8.650;2022-12-29T07:30:58;3.50;;;2.40;;
4422;SDS011;2224;49.814;8.650;2022-12-29T07:33:24;4.50;;;2.73;;
4422;SDS011;2224;49.814;8.650;2022-12-29T07:35:49;3.80;;;2.43;;
4422;SDS011;2224;49.814;8.650;2022-12-29T07:38:15;2.53;;;2.07;;
4422;SDS011;2224;49.814;8.650;2022-12-29T07:40:41;2.63;;;2.10;;
4422;SDS011;2224;49.814;8.650;2022-12-29T07:43:09;3.17;;;2.53;;
4422;SDS011;2224;49.814;8.650;2022-12-29T07:45:35;3.70;;;2.30;;
4422;SDS011;2224;49.814;8.650;2022-12-29T07:48:00;2.50;;;2.30;;
4422;SDS011;2224;49.814;8.650;2022-12-29T07:50:27;2.10;;;1.97;;
4422;SDS011;2224;49.814;8.650;2022-12-29T07:52:53;2.50;;;2.13;;
4422;SDS011;2224;49.814;8.650;2022-12-29T07:55:18;3.73;;;2.30;;
4422;SDS011;2224;49.814;8.650;2022-12-29T07:57:43;3.00;;;2.30;;
4422;SDS011;2224;49.814;8.650;2022-12-29T08:00:11;3.70;;;2.03;;
4422;SDS011;2224;49.814;8.650;2022-12-29T08:02:37;2.40;;;2.20;;
4422;SDS011;2224;49.814;8.650;2022-12-29T08:05:06;4.47;;;3.00;;
4422;SDS011;2224;49.814;8.650;2022-12-29T08:07:34;2.60;;;2.40;;
4422;SDS011;2224;49.814;8.650;2022-12-29T08:10:00;3.67;;;2.40;;
4422;SDS011;2224;49.814;8.650;2022-12-29T08:12:26;6.27;;;2.23;;
4422;SDS011;2224;49.814;8.650;2022-12-29T08:14:51;2.53;;;2.03;;
4422;SDS011;2224;49.814;8.650;2022-12-29T08:17:17;2.57;;;2.37;;
4422;SDS011;2224;49.814;8.650;2022-12-29T08:19:42;2.53;;;2.33;;
4422;SDS011;2224;49.814;8.650;2022-12-29T08:22:07;3.60;;;2.43;;
4422;SDS011;2224;49.814;8.650;2022-12-29T08:24:33;4.47;;;2.40;;
4422;SDS011;2224;49.814;8.650;2022-12-29T08:26:58;3.37;;;2.30;;
4422;SDS011;2224;49.814;8.650;2022-12-29T08:29:24;5.80;;;2.57;;
4422;SDS011;2224;49.814;8.650;2022-12-29T08:31:51;2.83;;;2.00;;
4422;SDS011;2224;49.814;8.650;2022-12-29T08:34:20;5.17;;;2.10;;
4422;SDS011;2224;49.814;8.650;2022-12-29T08:36:45;3.13;;;2.30;;
4422;SDS011;2224;49.814;8.650;2022-12-29T08:39:10;2.43;;;2.10;;
4422;SDS011;2224;49.814;8.650;2022-12-29T08:41:38;6.97;;;3.20;;
4422;SDS011;2224;49.814;8.650;2022-12-29T08:44:04;2.63;;;2.43;;
4422;SDS011;2224;49.814;8.650;2022-12-29T08:46:29;3.97;;;2.70;;
4422;SDS011;2224;49.814;8.650;2022-12-29T08:48:54;3.70;;;2.60;;
4422;SDS011;2224;49.814;8.650;2022-12-29T08:51:20;3.00;;;2.70;;
4422;SDS011;2224;49.814;8.650;2022-12-29T08:53:45;3.43;;;2.37;;
4422;SDS011;2224;49.814;8.650;2022-12-29T08:56:11;3.37;;;2.60;;
4422;SDS011;2224;49.814;8.650;2022-12-29T08:58:36;3.67;;;2.80;;
4422;SDS011;2224;49.814;8.650;2022-12-29T09:01:02;5.07;;;3.23;;
4422;SDS011;2224;49.814;8.650;2022-12-29T09:03:27;6.83;;;2.80;;
4422;SDS011;2224;49.814;8.650;2022-12-29T09:05:53;4.27;;;2.97;;
4422;SDS011;2224;49.814;8.650;2022-12-29T09:08:19;3.47;;;2.87;;
4422;SDS011;2224;49.814;8.650;2022-12-29T09:10:44;3.10;;;2.80;;
4422;SDS011;2224;49.814;8.650;2022-12-29T09:13:10;6.97;;;3.13;;
4422;SDS011;2224;49.814;8.650;2022-12-29T09:15:36;11.83;;;3.10;;
4422;SDS011;2224;49.814;8.650;2022-12-29T09:18:02;4.13;;;3.03;;
4422;SDS011;2224;49.814;8.650;2022-12-29T09:20:27;3.43;;;2.53;;
4422;SDS011;2224;49.814;8.650;2022-12-29T09:22:52;3.40;;;2.60;;
4422;SDS011;2224;49.814;8.650;2022-12-29T09:25:18;3.50;;;2.53;;
4422;SDS011;2224;49.814;8.650;2022-12-29T09:27:44;4.30;;;2.90;;
4422;SDS011;2224;49.814;8.650;2022-12-29T09:30:10;2.90;;;2.67;;
4422;SDS011;2224;49.814;8.650;2022-12-29T09:32:37;7.03;;;2.70;;
4422;SDS011;2224;49.814;8.650;2022-12-29T09:35:02;3.40;;;2.33;;
4422;SDS011;2224;49.814;8.650;2022-12-29T09:37:28;4.00;;;3.57;;
4422;SDS011;2224;49.814;8.650;2022-12-29T09:39:54;6.67;;;3.00;;
4422;SDS011;2224;49.814;8.650;2022-12-29T09:47:30;4.90;;;2.80;;
4422;SDS011;2224;49.814;8.650;2022-12-29T09:49:56;4.00;;;2.70;;
4422;SDS011;2224;49.814;8.650;2022-12-29T09:52:26;3.47;;;2.03;;
4422;SDS011;2224;49.814;8.650;2022-12-29T09:55:14;3.33;;;2.50;;
4422;SDS011;2224;49.814;8.650;2022-12-29T10:00:15;4.60;;;2.80;;
4422;SDS011;2224;49.814;8.650;2022-12-29T10:02:59;3.40;;;2.50;;
4422;SDS011;2224;49.814;8.650;2022-12-29T10:05:45;3.10;;;2.40;;
4422;SDS011;2224;49.814;8.650;2022-12-29T10:16:39;2.87;;;2.13;;
4422;SDS011;2224;49.814;8.650;2022-12-29T10:22:09;2.10;;;1.90;;
4422;SDS011;2224;49.814;8.650;2022-12-29T10:24:37;5.13;;;1.90;;
4422;SDS011;2224;49.814;8.650;2022-12-29T10:27:03;2.50;;;2.00;;
4422;SDS011;2224;49.814;8.650;2022-12-29T10:29:36;4.80;;;2.40;;
4422;SDS011;2224;49.814;8.650;2022-12-29T10:32:11;2.47;;;2.20;;
4422;SDS011;2224;49.814;8.650;2022-12-29T10:34:41;4.73;;;2.47;;
4422;SDS011;2224;49.814;8.650;2022-12-29T10:37:29;4.70;;;2.60;;
4422;SDS011;2224;49.814;8.650;2022-12-29T10:39:57;3.17;;;2.80;;
4422;SDS011;2224;49.814;8.650;2022-12-29T10:45:02;4.97;;;2.20;;
4422;SDS011;2224;49.814;8.650;2022-12-29T10:47:29;4.20;;;3.10;;
4422;SDS011;2224;49.814;8.650;2022-12-29T10:49:58;3.97;;;3.13;;
4422;SDS011;2224;49.814;8.650;2022-12-29T10:52:25;6.10;;;3.20;;
4422;SDS011;2224;49.814;8.650;2022-12-29T10:54:56;5.00;;;3.70;;
4422;SDS011;2224;49.814;8.650;2022-12-29T10:57:32;4.13;;;3.60;;
4422;SDS011;2224;49.814;8.650;2022-12-29T10:59:59;2.73;;;2.40;;
4422;SDS011;2224;49.814;8.650;2022-12-29T11:02:48;2.90;;;2.47;;
4422;SDS011;2224;49.814;8.650;2022-12-29T11:05:27;2.33;;;2.13;;
4422;SDS011;2224;49.814;8.650;2022-12-29T11:08:02;2.30;;;2.10;;
4422;SDS011;2224;49.814;8.650;2022-12-29T11:10:34;2.33;;;1.83;;
4422;SDS011;2224;49.814;8.650;2022-12-29T11:13:16;3.10;;;1.80;;
4422;SDS011;2224;49.814;8.650;2022-12-29T11:15:47;1.67;;;1.57;;
4422;SDS011;2224;49.814;8.650;2022-12-29T11:20:53;2.67;;;1.70;;
4422;SDS011;2224;49.814;8.650;2022-12-29T11:23:40;2.20;;;1.70;;
4422;SDS011;2224;49.814;8.650;2022-12-29T11:26:13;2.73;;;1.43;;
4422;SDS011;2224;49.814;8.650;2022-12-29T11:28:46;1.30;;;1.20;;
4422;SDS011;2224;49.814;8.650;2022-12-29T11:31:17;1.30;;;1.10;;
4422;SDS011;2224;49.814;8.650;2022-12-29T11:33:43;2.60;;;1.37;;
4422;SDS011;2224;49.814;8.650;2022-12-29T11:36:13;2.33;;;1.40;;
4422;SDS011;2224;49.814;8.650;2022-12-29T11:38:42;1.63;;;1.23;;
4422;SDS011;2224;49.814;8.650;2022-12-29T11:41:12;1.90;;;1.20;;
4422;SDS011;2224;49.814;8.650;2022-12-29T11:43:41;1.23;;;1.13;;
4422;SDS011;2224;49.814;8.650;2022-12-29T11:46:15;1.03;;;0.93;;
4422;SDS011;2224;49.814;8.650;2022-12-29T11:48:42;1.40;;;1.30;;
4422;SDS011;2224;49.814;8.650;2022-12-29T11:51:08;2.63;;;1.40;;
4422;SDS011;2224;49.814;8.650;2022-12-29T11:53:39;1.87;;;1.40;;
4422;SDS011;2224;49.814;8.650;2022-12-29T11:56:08;1.50;;;1.40;;
4422;SDS011;2224;49.814;8.650;2022-12-29T11:58:36;1.40;;;1.23;;
4422;SDS011;2224;49.814;8.650;2022-12-29T12:03:32;2.10;;;1.63;;
4422;SDS011;2224;49.814;8.650;2022-12-29T12:06:00;1.93;;;1.63;;
4422;SDS011;2224;49.814;8.650;2022-12-29T12:08:40;1.83;;;1.70;;
4422;SDS011;2224;49.814;8.650;2022-12-29T12:11:16;3.00;;;1.70;;
4422;SDS011;2224;49.814;8.650;2022-12-29T12:16:15;3.73;;;2.83;;
4422;SDS011;2224;49.814;8.650;2022-12-29T12:19:04;2.97;;;2.37;;
4422;SDS011;2224;49.814;8.650;2022-12-29T12:21:38;2.70;;;2.23;;
4422;SDS011;2224;49.814;8.650;2022-12-29T12:27:02;2.20;;;1.90;;
4422;SDS011;2224;49.814;8.650;2022-12-29T12:29:32;3.10;;;2.10;;
4422;SDS011;2224;49.814;8.650;2022-12-29T12:34:40;2.93;;;2.00;;
4422;SDS011;2224;49.814;8.650;2022-12-29T12:50:27;2.70;;;1.77;;
4422;SDS011;2224;49.814;8.650;2022-12-29T12:59:06;2.43;;;2.20;;
4422;SDS011;2224;49.814;8.650;2022-12-29T13:04:39;2.17;;;1.70;;
4422;SDS011;2224;49.814;8.650;2022-12-29T13:07:32;2.13;;;1.67;;
4422;SDS011;2224;49.814;8.650;2022-12-29T13:18:22;3.90;;;2.03;;
4422;SDS011;2224;49.814;8.650;2022-12-29T13:20:58;3.33;;;2.17;;
4422;SDS011;2224;49.814;8.650;2022-12-29T13:23:57;1.70;;;1.60;;
4422;SDS011;2224;49.814;8.650;2022-12-29T13:26:32;3.07;;;2.07;;
4422;SDS011;2224;49.814;8.650;2022-12-29T13:32:09;2.73;;;1.90;;
4422;SDS011;2224;49.814;8.650;2022-12-29T13:37:35;3.30;;;2.10;;
4422;SDS011;2224;49.814;8.650;2022-12-29T13:40:12;2.30;;;2.10;;
4422;SDS011;2224;49.814;8.650;2022-12-29T13:42:39;3.53;;;1.93;;
4422;SDS011;2224;49.814;8.650;2022-12-29T13:45:06;3.60;;;1.90;;
4422;SDS011;2224;49.814;8.650;2022-12-29T13:50:57;4.33;;;2.30;;
4422;SDS011;2224;49.814;8.650;2022-12-29T13:57:14;2.43;;;2.03;;
4422;SDS011;2224;49.814;8.650;2022-12-29T13:59:50;5.60;;;1.93;;
4422;SDS011;2224;49.814;8.650;2022-12-29T14:02:24;2.93;;;1.50;;
4422;SDS011;2224;49.814;8.650;2022-12-29T14:04:59;1.63;;;1.50;;
4422;SDS011;2224;49.814;8.650;2022-12-29T14:07:26;8.53;;;1.67;;
4422;SDS011;2224;49.814;8.650;2022-12-29T14:09:56;3.27;;;1.60;;
4422;SDS011;2224;49.814;8.650;2022-12-29T14:17:39;3.00;;;1.67;;
4422;SDS011;2224;49.814;8.650;2022-12-29T14:20:05;2.70;;;1.47;;
4422;SDS011;2224;49.814;8.650;2022-12-29T14:22:54;2.27;;;1.47;;
4422;SDS011;2224;49.814;8.650;2022-12-29T14:28:35;1.80;;;1.53;;
4422;SDS011;2224;49.814;8.650;2022-12-29T14:31:48;1.83;;;1.30;;
4422;SDS011;2224;49.814;8.650;2022-12-29T14:39:30;3.00;;;1.30;;
4422;SDS011;2224;49.814;8.650;2022-12-29T14:41:59;2.67;;;1.10;;
4422;SDS011;2224;49.814;8.650;2022-12-29T14:44:26;2.97;;;1.50;;
4422;SDS011;2224;49.814;8.650;2022-12-29T14:46:55;4.60;;;1.57;;
4422;SDS011;2224;49.814;8.650;2022-12-29T14:49:24;6.67;;;1.57;;
4422;SDS011;2224;49.814;8.650;2022-12-29T14:51:52;3.90;;;1.50;;
4422;SDS011;2224;49.814;8.650;2022-12-29T14:56:58;3.00;;;1.40;;
4422;SDS011;2224;49.814;8.650;2022-12-29T14:59:24;2.30;;;1.60;;
4422;SDS011;2224;49.814;8.650;2022-12-29T15:01:52;2.73;;;1.53;;
4422;SDS011;2224;49.814;8.650;2022-12-29T15:04:18;2.93;;;1.40;;
4422;SDS011;2224;49.814;8.650;2022-12-29T15:06:45;2.17;;;1.27;;
4422;SDS011;2224;49.814;8.650;2022-12-29T15:09:14;3.00;;;1.47;;
4422;SDS011;2224;49.814;8.650;2022-12-29T15:11:56;4.00;;;1.93;;
4422;SDS011;2224;49.814;8.650;2022-12-29T15:17:00;2.50;;;1.23;;
4422;SDS011;2224;49.814;8.650;2022-12-29T15:19:26;3.27;;;1.60;;
4422;SDS011;2224;49.814;8.650;2022-12-29T15:21:52;3.60;;;1.40;;
4422;SDS011;2224;49.814;8.650;2022-12-29T15:24:18;2.17;;;1.30;;
4422;SDS011;2224;49.814;8.650;2022-12-29T15:26:45;2.10;;;1.43;;
4422;SDS011;2224;49.814;8.650;2022-12-29T15:31:58;2.43;;;1.30;;
4422;SDS011;2224;49.814;8.650;2022-12-29T15:34:24;2.60;;;1.53;;
4422;SDS011;2224;49.814;8.650;2022-12-29T15:36:50;1.70;;;1.10;;
4422;SDS011;2224;49.814;8.650;2022-12-29T15:39:19;1.70;;;1.10;;
4422;SDS011;2224;49.814;8.650;2022-12-29T15:42:09;1.40;;;1.30;;
4422;SDS011;2224;49.814;8.650;2022-12-29T15:47:06;2.00;;;1.07;;
4422;SDS011;2224;49.814;8.650;2022-12-29T15:49:40;3.00;;;1.60;;
4422;SDS011;2224;49.814;8.650;2022-12-29T15:52:07;1.83;;;1.30;;
4422;SDS011;2224;49.814;8.650;2022-12-29T15:54:33;5.20;;;1.70;;
4422;SDS011;2224;49.814;8.650;2022-12-29T15:56:59;1.90;;;1.07;;
4422;SDS011;2224;49.814;8.650;2022-12-29T15:59:26;2.13;;;1.30;;
4422;SDS011;2224;49.814;8.650;2022-12-29T16:02:00;4.37;;;1.73;;
4422;SDS011;2224;49.814;8.650;2022-12-29T16:04:27;2.37;;;1.60;;
4422;SDS011;2224;49.814;8.650;2022-12-29T16:06:59;1.80;;;0.93;;
4422;SDS011;2224;49.814;8.650;2022-12-29T16:09:40;1.50;;;1.10;;
4422;SDS011;2224;49.814;8.650;2022-12-29T16:12:13;2.67;;;1.20;;
4422;SDS011;2224;49.814;8.650;2022-12-29T16:14:42;2.80;;;1.57;;
4422;SDS011;2224;49.814;8.650;2022-12-29T16:17:13;4.20;;;1.37;;
4422;SDS011;2224;49.814;8.650;2022-12-29T16:19:41;3.70;;;1.60;;
4422;SDS011;2224;49.814;8.650;2022-12-29T16:22:19;2.80;;;1.23;;
4422;SDS011;2224;49.814;8.650;2022-12-29T16:24:54;2.47;;;1.50;;
4422;SDS011;2224;49.814;8.650;2022-12-29T16:27:22;4.43;;;1.70;;
4422;SDS011;2224;49.814;8.650;2022-12-29T16:29:53;2.93;;;1.53;;
4422;SDS011;2224;49.814;8.650;2022-12-29T16:32:24;3.70;;;1.67;;
4422;SDS011;2224;49.814;8.650;2022-12-29T16:34:51;3.40;;;1.40;;
4422;SDS011;2224;49.814;8.650;2022-12-29T16:37:29;2.07;;;1.80;;
4422;SDS011;2224;49.814;8.650;2022-12-29T16:39:55;2.30;;;1.30;;
4422;SDS011;2224;49.814;8.650;2022-12-29T16:42:45;4.20;;;1.37;;
4422;SDS011;2224;49.814;8.650;2022-12-29T16:48:10;3.13;;;1.23;;
4422;SDS011;2224;49.814;8.650;2022-12-29T16:50:37;2.90;;;1.40;;
4422;SDS011;2224;49.814;8.650;2022-12-29T16:53:04;4.90;;;1.90;;
4422;SDS011;2224;49.814;8.650;2022-12-29T16:55:30;5.63;;;2.03;;
4422;SDS011;2224;49.814;8.650;2022-12-29T16:57:55;3.13;;;1.20;;
4422;SDS011;2224;49.814;8.650;2022-12-29T17:00:23;4.27;;;3.03;;
4422;SDS011;2224;49.814;8.650;2022-12-29T17:02:50;3.20;;;1.83;;
4422;SDS011;2224;49.814;8.650;2022-12-29T17:05:18;3.53;;;1.50;;
4422;SDS011;2224;49.814;8.650;2022-12-29T17:07:44;5.70;;;2.30;;
4422;SDS011;2224;49.814;8.650;2022-12-29T17:10:10;6.07;;;1.70;;
4422;SDS011;2224;49.814;8.650;2022-12-29T17:12:37;6.00;;;1.50;;
4422;SDS011;2224;49.814;8.650;2022-12-29T17:17:32;8.50;;;1.80;;
4422;SDS011;2224;49.814;8.650;2022-12-29T17:20:00;7.80;;;1.50;;
4422;SDS011;2224;49.814;8.650;2022-12-29T17:22:29;3.27;;;1.80;;
4422;SDS011;2224;49.814;8.650;2022-12-29T17:24:55;2.10;;;1.90;;
4422;SDS011;2224;49.814;8.650;2022-12-29T17:30:11;4.70;;;1.90;;
4422;SDS011;2224;49.814;8.650;2022-12-29T17:32:38;7.10;;;2.93;;
4422;SDS011;2224;49.814;8.650;2022-12-29T17:35:04;4.53;;;2.17;;
4422;SDS011;2224;49.814;8.650;2022-12-29T17:37:34;2.47;;;1.83;;
4422;SDS011;2224;49.814;8.650;2022-12-29T17:40:01;4.77;;;1.83;;
4422;SDS011;2224;49.814;8.650;2022-12-29T17:42:27;2.43;;;1.27;;
4422;SDS011;2224;49.814;8.650;2022-12-29T17:44:53;2.80;;;1.73;;
4422;SDS011;2224;49.814;8.650;2022-12-29T17:47:18;2.50;;;1.90;;
4422;SDS011;2224;49.814;8.650;2022-12-29T17:49:43;11.33;;;2.23;;